Time,TemperatureF,DewpointF,PressureIn,WindDirection,WindDirectionDegrees,WindSpeedMPH,WindSpeedGustMPH,Humidity,HourlyPrecipIn,Conditions,Clouds,dailyrainin,SoftwareType,DateUTC
2013-02-17 00:00:00,15.3,4.2,18.63,West,274,0.0,0.0,61,0.00,,---,0.00,VWS V13.01,2013-02-17 05:00:00,
2013-02-17 00:01:00,15.3,4.2,18.63,West,274,0.0,0.0,61,0.00,,---,0.00,VWS V13.01,2013-02-17 05:01:00,
2013-02-17 00:05:00,15.3,4.2,18.63,West,274,0.0,0.0,61,0.00,,---,0.00,VWS V13.01,2013-02-17 05:05:00,
2013-02-17 00:10:00,15.1,4.4,18.63,West,274,0.0,0.0,62,0.00,,---,0.00,VWS V13.01,2013-02-17 05:10:00,
2013-02-17 00:15:00,15.1,4.8,18.63,West,274,0.0,0.0,63,0.00,,---,0.00,VWS V13.01,2013-02-17 05:15:00,
2013-02-17 00:20:00,14.9,4.6,18.63,West,274,0.0,0.0,63,0.00,,---,0.00,VWS V13.01,2013-02-17 05:20:00,
2013-02-17 00:25:00,14.5,3.9,18.63,West,274,0.0,0.0,62,0.00,,---,0.00,VWS V13.01,2013-02-17 05:25:00,
2013-02-17 00:30:00,14.2,3.2,18.63,West,274,0.0,0.0,61,0.00,,---,0.00,VWS V13.01,2013-02-17 05:30:00,
2013-02-17 00:35:00,14.0,3.0,18.63,West,274,0.0,0.0,61,0.00,,---,0.00,VWS V13.01,2013-02-17 05:35:00,
2013-02-17 00:40:00,13.8,2.9,18.63,West,274,0.0,0.0,61,0.00,,---,0.00,VWS V13.01,2013-02-17 05:40:00,
2013-02-17 00:45:00,14.0,3.4,18.63,West,274,0.0,0.0,62,0.00,,---,0.00,VWS V13.01,2013-02-17 05:45:00,
2013-02-17 00:50:00,13.8,3.2,18.63,West,274,0.0,0.0,62,0.00,,---,0.00,VWS V13.01,2013-02-17 05:50:00,
2013-02-17 00:55:00,13.5,2.9,18.63,West,274,0.0,0.0,62,0.00,,---,0.00,VWS V13.01,2013-02-17 05:55:00,
2013-02-17 01:01:00,13.3,2.7,18.63,West,274,0.0,0.0,62,0.00,,---,0.00,VWS V13.01,2013-02-17 06:01:00,
2013-02-17 01:06:00,13.5,2.9,18.63,West,274,0.0,0.0,62,0.00,,---,0.00,VWS V13.01,2013-02-17 06:06:00,
2013-02-17 01:11:00,13.5,2.9,18.63,West,274,0.0,0.0,62,0.00,,---,0.00,VWS V13.01,2013-02-17 06:11:00,
2013-02-17 01:16:00,13.3,2.7,18.63,West,274,0.0,0.0,62,0.00,,---,0.00,VWS V13.01,2013-02-17 06:16:00,
2013-02-17 01:21:00,13.5,2.9,18.63,West,274,0.0,0.0,62,0.00,,---,0.00,VWS V13.01,2013-02-17 06:21:00,
2013-02-17 01:26:00,13.5,2.9,18.63,West,274,0.0,0.0,62,0.00,,---,0.00,VWS V13.01,2013-02-17 06:26:00,
2013-02-17 01:31:00,13.5,2.9,18.63,West,274,0.0,0.0,62,0.00,,---,0.00,VWS V13.01,2013-02-17 06:31:00,
2013-02-17 01:36:00,13.6,3.0,18.63,West,274,0.0,0.0,62,0.00,,---,0.00,VWS V13.01,2013-02-17 06:36:00,
2013-02-17 01:41:00,14.0,4.4,18.63,West,274,0.0,0.0,65,0.00,,---,0.00,VWS V13.01,2013-02-17 06:41:00,
2013-02-17 01:46:00,14.4,4.8,18.63,West,274,0.0,0.0,65,0.00,,---,0.00,VWS V13.01,2013-02-17 06:46:00,
2013-02-17 01:51:00,14.5,4.9,18.63,West,274,0.0,0.0,65,0.00,,---,0.00,VWS V13.01,2013-02-17 06:51:00,
2013-02-17 01:56:00,14.9,5.6,18.63,West,274,0.0,0.0,66,0.00,,---,0.00,VWS V13.01,2013-02-17 06:56:00,
2013-02-17 02:01:00,15.3,5.9,18.63,West,274,0.0,0.0,66,0.00,,---,0.00,VWS V13.01,2013-02-17 07:01:00,
2013-02-17 02:06:00,15.4,6.1,18.63,West,274,0.0,0.0,66,0.00,,---,0.00,VWS V13.01,2013-02-17 07:06:00,
2013-02-17 02:11:00,15.6,6.6,18.63,West,274,0.0,0.0,67,0.00,,---,0.00,VWS V13.01,2013-02-17 07:11:00,
2013-02-17 02:16:00,15.8,6.8,18.63,West,274,0.0,0.0,67,0.00,,---,0.00,VWS V13.01,2013-02-17 07:16:00,
2013-02-17 02:21:00,16.0,7.0,18.63,West,274,0.0,0.0,67,0.00,,---,0.00,VWS V13.01,2013-02-17 07:21:00,
2013-02-17 02:26:00,16.2,7.2,18.63,West,274,0.0,0.0,67,0.00,,---,0.00,VWS V13.01,2013-02-17 07:26:00,
2013-02-17 02:32:00,16.2,7.2,18.63,West,274,0.0,0.0,67,0.00,,---,0.00,VWS V13.01,2013-02-17 07:32:00,
2013-02-17 02:37:00,16.2,7.2,18.63,West,274,0.0,0.0,67,0.00,,---,0.00,VWS V13.01,2013-02-17 07:37:00,
2013-02-17 02:42:00,16.3,7.6,18.63,West,274,0.0,0.0,68,0.00,,---,0.00,VWS V13.01,2013-02-17 07:42:00,
2013-02-17 02:47:00,16.5,7.8,18.63,West,274,0.0,0.0,68,0.00,,---,0.00,VWS V13.01,2013-02-17 07:47:00,
2013-02-17 02:52:00,16.7,8.3,18.63,West,274,0.0,0.0,69,0.00,,---,0.00,VWS V13.01,2013-02-17 07:52:00,
2013-02-17 02:57:00,16.9,8.5,18.63,West,274,0.0,0.0,69,0.00,,---,0.00,VWS V13.01,2013-02-17 07:57:00,
2013-02-17 03:02:00,17.1,9.0,18.63,West,274,0.0,0.0,70,0.00,,---,0.00,VWS V13.01,2013-02-17 08:02:00,
2013-02-17 03:07:00,17.4,9.3,18.63,West,274,0.0,0.0,70,0.00,,---,0.00,VWS V13.01,2013-02-17 08:07:00,
2013-02-17 03:12:00,17.4,9.6,18.63,NW,305,0.0,0.0,71,0.00,,---,0.00,VWS V13.01,2013-02-17 08:12:00,
2013-02-17 03:17:00,17.6,9.8,18.63,WNW,283,3.1,4.0,71,0.00,,---,0.00,VWS V13.01,2013-02-17 08:17:00,
2013-02-17 03:22:00,17.8,10.0,18.63,West,278,2.7,4.0,71,0.00,,---,0.00,VWS V13.01,2013-02-17 08:22:00,
2013-02-17 03:27:00,17.8,10.0,18.63,WNW,295,2.7,4.0,71,0.00,,---,0.00,VWS V13.01,2013-02-17 08:27:00,
2013-02-17 03:32:00,17.8,10.3,18.63,WNW,284,0.0,3.6,72,0.00,,---,0.00,VWS V13.01,2013-02-17 08:32:00,
2013-02-17 03:37:00,18.0,10.5,18.63,WNW,285,0.0,3.6,72,0.00,,---,0.00,VWS V13.01,2013-02-17 08:37:00,
2013-02-17 03:42:00,18.1,10.6,18.63,West,273,0.0,0.0,72,0.00,,---,0.00,VWS V13.01,2013-02-17 08:42:00,
2013-02-17 03:47:00,18.1,11.0,18.63,West,273,0.0,0.0,73,0.00,,---,0.00,VWS V13.01,2013-02-17 08:47:00,
2013-02-17 03:53:00,18.3,11.1,18.63,NW,321,0.0,0.0,73,0.00,,---,0.00,VWS V13.01,2013-02-17 08:53:00,
2013-02-17 03:58:00,18.3,11.1,18.63,WNW,303,0.0,0.0,73,0.00,,---,0.00,VWS V13.01,2013-02-17 08:58:00,
2013-02-17 04:03:00,18.3,11.1,18.63,WNW,303,0.0,0.0,73,0.00,,---,0.00,VWS V13.01,2013-02-17 09:03:00,
2013-02-17 04:08:00,18.3,11.4,18.63,North,353,0.0,0.0,74,0.00,,---,0.00,VWS V13.01,2013-02-17 09:08:00,
2013-02-17 04:13:00,18.3,11.7,18.63,North,2,0.0,0.0,75,0.00,,---,0.00,VWS V13.01,2013-02-17 09:13:00,
2013-02-17 04:18:00,18.3,12.0,18.63,North,357,0.0,0.0,76,0.00,,---,0.00,VWS V13.01,2013-02-17 09:18:00,
2013-02-17 04:23:00,18.5,12.5,18.63,NNE,19,0.0,4.0,77,0.00,,---,0.00,VWS V13.01,2013-02-17 09:23:00,
2013-02-17 04:28:00,18.5,12.8,18.63,North,353,3.6,4.9,78,0.00,,---,0.00,VWS V13.01,2013-02-17 09:28:00,
2013-02-17 04:33:00,18.5,12.8,18.63,North,4,4.0,5.4,78,0.00,,---,0.00,VWS V13.01,2013-02-17 09:33:00,
2013-02-17 04:38:00,18.3,12.9,18.63,NNE,31,5.4,5.8,79,0.00,,---,0.00,VWS V13.01,2013-02-17 09:38:00,
2013-02-17 04:43:00,18.3,12.6,18.63,NNE,30,4.5,5.8,78,0.00,,---,0.00,VWS V13.01,2013-02-17 09:43:00,
2013-02-17 04:48:00,18.1,12.2,18.63,North,5,5.4,5.8,77,0.00,,---,0.00,VWS V13.01,2013-02-17 09:48:00,
2013-02-17 04:53:00,17.8,11.8,18.63,NNE,16,4.0,5.4,77,0.00,,---,0.00,VWS V13.01,2013-02-17 09:53:00,
2013-02-17 04:58:00,17.8,11.8,18.63,North,357,2.7,5.4,77,0.00,,---,0.00,VWS V13.01,2013-02-17 09:58:00,
2013-02-17 05:03:00,17.8,11.8,18.63,North,357,3.1,6.3,77,0.00,,---,0.00,VWS V13.01,2013-02-17 10:03:00,
2013-02-17 05:08:00,17.6,11.9,18.63,NE,38,3.1,7.6,78,0.00,,---,0.00,VWS V13.01,2013-02-17 10:08:00,
2013-02-17 05:14:00,17.4,11.8,18.63,NNE,32,6.7,6.7,78,0.00,,---,0.00,VWS V13.01,2013-02-17 10:14:00,
2013-02-17 05:19:00,17.4,11.8,18.63,NNE,19,2.7,6.7,78,0.00,,---,0.00,VWS V13.01,2013-02-17 10:19:00,
2013-02-17 05:24:00,17.2,11.6,18.63,North,353,3.6,5.4,78,0.00,,---,0.00,VWS V13.01,2013-02-17 10:24:00,
2013-02-17 05:29:00,17.1,11.4,18.63,NNW,344,4.0,5.4,78,0.00,,---,0.00,VWS V13.01,2013-02-17 10:29:00,
2013-02-17 05:34:00,17.1,11.4,18.63,NE,35,3.6,4.9,78,0.00,,---,0.00,VWS V13.01,2013-02-17 10:34:00,
2013-02-17 05:39:00,16.9,11.2,18.63,NNE,24,3.1,5.8,78,0.00,,---,0.00,VWS V13.01,2013-02-17 10:39:00,
2013-02-17 05:44:00,16.7,11.1,18.63,North,8,4.0,8.1,78,0.00,,---,0.00,VWS V13.01,2013-02-17 10:44:00,
2013-02-17 05:49:00,16.5,10.6,18.63,North,7,2.7,8.1,77,0.00,,---,0.00,VWS V13.01,2013-02-17 10:49:00,
2013-02-17 05:54:00,16.5,10.6,18.63,NE,39,3.6,5.4,77,0.00,,---,0.00,VWS V13.01,2013-02-17 10:54:00,
2013-02-17 05:59:00,16.2,10.2,18.63,NE,37,3.6,5.4,77,0.00,,---,0.00,VWS V13.01,2013-02-17 10:59:00,
2013-02-17 06:04:00,16.2,10.2,18.63,NNE,18,0.0,5.4,77,0.00,,---,0.00,VWS V13.01,2013-02-17 11:04:00,
2013-02-17 06:09:00,16.0,10.1,18.63,North,2,0.0,5.4,77,0.00,,---,0.00,VWS V13.01,2013-02-17 11:09:00,
2013-02-17 06:14:00,15.8,9.9,18.63,North,349,0.0,0.0,77,0.00,,---,0.00,VWS V13.01,2013-02-17 11:14:00,
2013-02-17 06:19:00,15.6,9.7,18.63,North,4,0.0,0.0,77,0.00,,---,0.00,VWS V13.01,2013-02-17 11:19:00,
2013-02-17 06:24:00,15.6,9.7,18.63,North,1,5.4,5.8,77,0.00,,---,0.00,VWS V13.01,2013-02-17 11:24:00,
2013-02-17 06:29:00,15.4,9.5,18.63,NNE,32,0.0,5.8,77,0.00,,---,0.00,VWS V13.01,2013-02-17 11:29:00,
2013-02-17 06:34:00,15.4,9.8,18.63,North,4,0.0,4.0,78,0.00,,---,0.00,VWS V13.01,2013-02-17 11:34:00,
2013-02-17 06:40:00,15.6,10.0,18.63,North,0,0.0,0.0,78,0.00,,---,0.00,VWS V13.01,2013-02-17 11:40:00,
2013-02-17 06:45:00,15.8,10.2,18.63,North,353,4.0,4.0,78,0.00,,---,0.00,VWS V13.01,2013-02-17 11:45:00,
2013-02-17 06:50:00,15.8,10.2,18.63,NW,318,0.0,4.9,78,0.00,,---,0.00,VWS V13.01,2013-02-17 11:50:00,
2013-02-17 06:55:00,15.6,10.0,18.63,NNW,338,3.1,4.9,78,0.00,,---,0.00,VWS V13.01,2013-02-17 11:55:00,
2013-02-17 07:00:00,15.6,10.0,18.63,NE,46,5.8,5.8,78,0.00,,---,0.00,VWS V13.01,2013-02-17 12:00:00,
2013-02-17 07:05:00,15.4,9.8,18.63,NNW,342,4.0,5.8,78,0.00,,---,0.00,VWS V13.01,2013-02-17 12:05:00,
2013-02-17 07:10:00,15.4,9.5,18.63,North,353,2.2,2.7,77,0.00,,---,0.00,VWS V13.01,2013-02-17 12:10:00,
2013-02-17 07:15:00,15.4,9.5,18.63,NE,41,4.0,5.8,77,0.00,,---,0.00,VWS V13.01,2013-02-17 12:15:00,
2013-02-17 07:20:00,15.3,9.4,18.63,North,5,3.1,4.0,77,0.00,,---,0.00,VWS V13.01,2013-02-17 12:20:00,
2013-02-17 07:25:00,15.3,9.4,18.63,North,0,4.0,7.2,77,0.00,,---,0.00,VWS V13.01,2013-02-17 12:25:00,
2013-02-17 07:30:00,15.3,9.1,18.63,North,10,0.0,0.0,76,0.00,,---,0.00,VWS V13.01,2013-02-17 12:30:00,
2013-02-17 07:35:00,15.3,9.1,18.63,North,3,5.4,5.4,76,0.00,,---,0.00,VWS V13.01,2013-02-17 12:35:00,
2013-02-17 07:40:00,15.3,9.1,18.63,NNW,331,0.0,0.0,76,0.00,,---,0.00,VWS V13.01,2013-02-17 12:40:00,
2013-02-17 07:45:00,15.4,9.2,18.63,North,9,3.1,4.5,76,0.00,,---,0.00,VWS V13.01,2013-02-17 12:45:00,
2013-02-17 07:50:00,15.4,9.2,18.63,NNE,25,2.2,3.6,76,0.00,,---,0.00,VWS V13.01,2013-02-17 12:50:00,
2013-02-17 07:56:00,15.6,9.1,18.63,North,353,2.7,6.3,75,0.00,,---,0.00,VWS V13.01,2013-02-17 12:56:00,
2013-02-17 08:01:00,15.8,9.3,18.63,NE,35,0.0,0.0,75,0.00,,---,0.00,VWS V13.01,2013-02-17 13:01:00,
2013-02-17 08:06:00,16.5,9.7,18.63,North,353,2.7,3.1,74,0.00,,---,0.00,VWS V13.01,2013-02-17 13:06:00,
2013-02-17 08:11:00,17.1,9.9,18.63,North,0,4.0,4.9,73,0.00,,---,0.00,VWS V13.01,2013-02-17 13:11:00,
2013-02-17 08:16:00,17.1,9.3,18.63,North,357,2.7,4.9,71,0.00,,---,0.00,VWS V13.01,2013-02-17 13:16:00,
2013-02-17 08:21:00,17.1,9.0,18.63,North,5,0.0,2.7,70,0.00,,---,0.00,VWS V13.01,2013-02-17 13:21:00,
2013-02-17 08:26:00,17.1,9.0,18.63,North,8,3.6,4.0,70,0.00,,---,0.00,VWS V13.01,2013-02-17 13:26:00,
2013-02-17 08:31:00,17.4,9.0,18.63,North,4,3.1,3.1,69,0.00,,---,0.00,VWS V13.01,2013-02-17 13:31:00,
2013-02-17 08:36:00,17.8,9.0,18.63,North,357,2.7,5.4,68,0.00,,---,0.00,VWS V13.01,2013-02-17 13:36:00,
2013-02-17 08:41:00,17.8,9.0,18.63,North,357,0.0,0.0,68,0.00,,---,0.00,VWS V13.01,2013-02-17 13:41:00,
2013-02-17 08:46:00,17.6,8.5,18.63,North,0,2.7,4.0,67,0.00,,---,0.00,VWS V13.01,2013-02-17 13:46:00,
2013-02-17 08:51:00,17.4,8.0,18.63,North,357,4.0,6.3,66,0.00,,---,0.00,VWS V13.01,2013-02-17 13:51:00,
2013-02-17 08:57:00,17.6,7.8,18.63,North,353,3.6,6.3,65,0.00,,---,0.00,VWS V13.01,2013-02-17 13:57:00,
2013-02-17 09:02:00,18.1,8.4,18.63,WNW,297,3.1,3.1,65,0.00,,---,0.00,VWS V13.01,2013-02-17 14:02:00,
2013-02-17 09:07:00,18.5,8.4,18.63,North,357,4.0,5.4,64,0.00,,---,0.00,VWS V13.01,2013-02-17 14:07:00,
2013-02-17 09:12:00,18.3,7.8,18.63,WNW,301,0.0,0.0,63,0.00,,---,0.00,VWS V13.01,2013-02-17 14:12:00,
2013-02-17 09:17:00,17.8,7.3,18.63,WSW,257,0.0,6.3,63,0.00,,---,0.00,VWS V13.01,2013-02-17 14:17:00,
2013-02-17 09:22:00,17.4,7.7,18.63,North,0,6.3,9.6,65,0.00,,---,0.00,VWS V13.01,2013-02-17 14:22:00,
2013-02-17 09:27:00,17.1,8.3,18.63,NNW,333,4.9,9.6,68,0.00,,---,0.00,VWS V13.01,2013-02-17 14:27:00,
2013-02-17 09:32:00,17.6,9.2,18.63,NW,320,2.7,8.1,69,0.00,,---,0.00,VWS V13.01,2013-02-17 14:32:00,
2013-02-17 09:37:00,18.5,9.7,18.63,NW,308,5.4,8.1,68,0.00,,---,0.00,VWS V13.01,2013-02-17 14:37:00,
2013-02-17 09:42:00,19.0,8.2,18.63,NW,313,6.7,8.1,62,0.00,,---,0.00,VWS V13.01,2013-02-17 14:42:00,
2013-02-17 09:47:00,19.0,7.1,18.63,WNW,296,4.0,8.1,59,0.00,,---,0.00,VWS V13.01,2013-02-17 14:47:00,
2013-02-17 09:52:00,19.4,7.1,18.63,NNW,328,0.0,6.3,58,0.00,,---,0.00,VWS V13.01,2013-02-17 14:52:00,
2013-02-17 09:58:00,18.9,6.9,18.63,NW,325,4.0,8.7,59,0.00,,---,0.00,VWS V13.01,2013-02-17 14:58:00,
2013-02-17 10:03:00,18.1,6.6,18.63,NW,306,7.6,9.6,60,0.00,,---,0.00,VWS V13.01,2013-02-17 15:03:00,
2013-02-17 10:08:00,18.5,6.6,18.63,NW,326,8.3,11.0,59,0.00,,---,0.00,VWS V13.01,2013-02-17 15:08:00,
2013-02-17 10:13:00,19.4,7.1,18.63,NW,316,5.4,8.7,58,0.00,,---,0.00,VWS V13.01,2013-02-17 15:13:00,
2013-02-17 10:18:00,19.8,6.2,18.63,WNW,291,4.0,8.7,55,0.00,,---,0.00,VWS V13.01,2013-02-17 15:18:00,
2013-02-17 10:23:00,19.0,5.5,18.63,NW,315,2.7,7.6,55,0.00,,---,0.00,VWS V13.01,2013-02-17 15:23:00,
2013-02-17 10:28:00,18.7,4.8,18.63,NNW,330,6.3,11.0,54,0.00,,---,0.00,VWS V13.01,2013-02-17 15:28:00,
2013-02-17 10:33:00,18.5,4.6,18.63,NW,305,7.6,8.7,54,0.00,,---,0.00,VWS V13.01,2013-02-17 15:33:00,
2013-02-17 10:38:00,19.2,4.9,18.63,NNW,338,8.3,10.1,53,0.00,,---,0.00,VWS V13.01,2013-02-17 15:38:00,
2013-02-17 10:43:00,19.9,4.3,18.63,WNW,290,3.6,8.1,50,0.00,,---,0.00,VWS V13.01,2013-02-17 15:43:00,
2013-02-17 10:48:00,19.4,3.4,18.63,West,277,3.1,8.3,49,0.00,,---,0.00,VWS V13.01,2013-02-17 15:48:00,
2013-02-17 10:53:00,20.3,4.2,18.63,West,273,5.4,8.7,49,0.00,,---,0.00,VWS V13.01,2013-02-17 15:53:00,
2013-02-17 10:58:00,19.8,3.7,18.63,NNW,341,3.6,8.7,49,0.00,,---,0.00,VWS V13.01,2013-02-17 15:58:00,
2013-02-17 11:03:00,19.0,3.5,18.63,WNW,303,4.0,8.1,50,0.00,,---,0.00,VWS V13.01,2013-02-17 16:03:00,
2013-02-17 11:08:00,18.3,2.4,18.63,WNW,288,3.6,8.1,49,0.00,,---,0.00,VWS V13.01,2013-02-17 16:08:00,
2013-02-17 11:14:00,18.9,2.9,18.63,West,261,4.0,10.1,49,0.00,,---,0.00,VWS V13.01,2013-02-17 16:14:00,
2013-02-17 11:19:00,18.9,2.9,18.63,West,261,4.9,10.1,49,0.00,,---,0.00,VWS V13.01,2013-02-17 16:19:00,
2013-02-17 11:24:00,18.5,1.6,18.63,NW,325,5.4,8.7,47,0.00,,---,0.00,VWS V13.01,2013-02-17 16:24:00,
2013-02-17 11:29:00,18.3,1.0,18.63,NW,313,8.1,8.7,46,0.00,,---,0.00,VWS V13.01,2013-02-17 16:29:00,
2013-02-17 11:34:00,19.0,2.1,18.63,West,267,4.0,8.3,47,0.00,,---,0.00,VWS V13.01,2013-02-17 16:34:00,
2013-02-17 11:39:00,18.7,2.3,18.63,NW,315,3.6,8.3,48,0.00,,---,0.00,VWS V13.01,2013-02-17 16:39:00,
2013-02-17 11:44:00,18.5,3.8,18.63,WNW,300,8.1,10.1,52,0.00,,---,0.00,VWS V13.01,2013-02-17 16:44:00,
2013-02-17 11:49:00,18.5,3.8,18.63,West,281,6.3,10.1,52,0.00,,---,0.00,VWS V13.01,2013-02-17 16:49:00,
2013-02-17 11:54:00,17.6,2.1,18.63,West,273,5.8,10.5,50,0.00,,---,0.00,VWS V13.01,2013-02-17 16:54:00,
2013-02-17 11:59:00,18.3,2.4,18.63,NW,319,8.3,11.4,49,0.00,,---,0.00,VWS V13.01,2013-02-17 16:59:00,
2013-02-17 12:04:00,19.0,2.6,18.63,NW,308,7.6,8.7,48,0.00,,---,0.00,VWS V13.01,2013-02-17 17:04:00,
2013-02-17 12:09:00,19.0,1.7,18.63,NW,306,8.1,8.7,46,0.00,,---,0.00,VWS V13.01,2013-02-17 17:09:00,
2013-02-17 12:14:00,17.8,0.5,18.63,WNW,287,7.6,11.0,46,0.00,,---,0.00,VWS V13.01,2013-02-17 17:14:00,
2013-02-17 12:20:00,18.7,1.4,18.63,NW,313,5.8,12.8,46,0.00,,---,0.00,VWS V13.01,2013-02-17 17:20:00,
2013-02-17 12:25:00,18.0,0.7,18.63,WNW,291,8.7,12.8,46,0.00,,---,0.00,VWS V13.01,2013-02-17 17:25:00,
2013-02-17 12:30:00,19.4,2.0,18.63,NW,325,10.5,12.8,46,0.00,,---,0.00,VWS V13.01,2013-02-17 17:30:00,
2013-02-17 12:35:00,19.4,1.5,18.63,WNW,288,4.0,12.3,45,0.00,,---,0.00,VWS V13.01,2013-02-17 17:35:00,
2013-02-17 12:40:00,19.6,1.7,18.63,WNW,294,5.8,5.8,45,0.00,,---,0.00,VWS V13.01,2013-02-17 17:40:00,
2013-02-17 12:45:00,19.2,1.4,18.63,West,279,6.3,9.2,45,0.00,,---,0.00,VWS V13.01,2013-02-17 17:45:00,
2013-02-17 12:50:00,19.4,1.5,18.63,West,273,5.8,8.1,45,0.00,,---,0.00,VWS V13.01,2013-02-17 17:50:00,
2013-02-17 12:55:00,19.4,1.5,18.63,NW,316,5.4,11.4,45,0.00,,---,0.00,VWS V13.01,2013-02-17 17:55:00,
2013-02-17 13:00:00,18.5,0.7,18.63,WNW,299,8.1,11.0,45,0.00,,---,0.00,VWS V13.01,2013-02-17 18:00:00,
2013-02-17 13:05:00,18.1,0.4,18.63,WNW,298,5.8,12.8,45,0.00,,---,0.00,VWS V13.01,2013-02-17 18:05:00,
2013-02-17 13:10:00,18.1,0.4,18.63,NNE,22,8.7,11.0,45,0.00,,---,0.00,VWS V13.01,2013-02-17 18:10:00,
2013-02-17 13:15:00,17.8,0.1,18.63,West,274,8.1,12.8,45,0.00,,---,0.00,VWS V13.01,2013-02-17 18:15:00,
2013-02-17 13:20:00,17.6,0.3,18.63,NW,319,8.7,8.7,46,0.00,,---,0.00,VWS V13.01,2013-02-17 18:20:00,
2013-02-17 13:25:00,17.8,0.1,18.63,NW,306,5.4,11.0,45,0.00,,---,0.00,VWS V13.01,2013-02-17 18:25:00,
2013-02-17 13:31:00,17.8,0.1,18.63,West,278,10.5,11.0,45,0.00,,---,0.00,VWS V13.01,2013-02-17 18:31:00,
2013-02-17 13:36:00,17.8,0.1,18.63,West,265,14.5,14.5,45,0.00,,---,0.00,VWS V13.01,2013-02-17 18:36:00,
2013-02-17 13:41:00,17.6,-0.1,18.63,WSW,250,4.9,8.7,45,0.00,,---,0.00,VWS V13.01,2013-02-17 18:41:00,
2013-02-17 13:46:00,18.0,0.2,18.63,West,277,9.2,13.2,45,0.00,,---,0.00,VWS V13.01,2013-02-17 18:46:00,
2013-02-17 13:51:00,17.6,-0.1,18.63,WNW,298,8.3,11.0,45,0.00,,---,0.00,VWS V13.01,2013-02-17 18:51:00,
2013-02-17 13:56:00,17.4,0.2,18.63,WNW,296,5.4,11.0,46,0.00,,---,0.00,VWS V13.01,2013-02-17 18:56:00,
2013-02-17 14:01:00,17.1,-0.1,18.63,NW,325,12.8,12.8,46,0.00,,---,0.00,VWS V13.01,2013-02-17 19:01:00,
2013-02-17 14:06:00,16.9,-0.3,18.63,NW,319,10.1,13.2,46,0.00,,---,0.00,VWS V13.01,2013-02-17 19:06:00,
2013-02-17 14:11:00,16.5,-0.6,18.63,WNW,288,5.4,10.1,46,0.00,,---,0.00,VWS V13.01,2013-02-17 19:11:00,
2013-02-17 14:16:00,16.5,-0.6,18.63,WNW,289,8.3,13.2,46,0.00,,---,0.00,VWS V13.01,2013-02-17 19:16:00,
2013-02-17 14:21:00,17.1,-0.1,18.63,WNW,285,12.8,12.8,46,0.00,,---,0.00,VWS V13.01,2013-02-17 19:21:00,
2013-02-17 14:26:00,16.9,-0.3,18.63,West,259,8.1,16.3,46,0.00,,---,0.00,VWS V13.01,2013-02-17 19:26:00,
2013-02-17 14:31:00,17.4,0.2,18.63,West,275,5.4,13.6,46,0.00,,---,0.00,VWS V13.01,2013-02-17 19:31:00,
2013-02-17 14:37:00,17.6,-0.1,18.63,West,260,8.1,15.4,45,0.00,,---,0.00,VWS V13.01,2013-02-17 19:37:00,
2013-02-17 14:42:00,17.6,-0.1,18.63,WNW,302,10.5,13.2,45,0.00,,---,0.00,VWS V13.01,2013-02-17 19:42:00,
2013-02-17 14:47:00,16.9,-0.8,18.63,NW,313,13.2,13.2,45,0.00,,---,0.00,VWS V13.01,2013-02-17 19:47:00,
2013-02-17 14:52:00,16.9,-0.8,18.63,West,277,12.8,15.0,45,0.00,,---,0.00,VWS V13.01,2013-02-17 19:52:00,
2013-02-17 14:57:00,16.5,-1.1,18.63,West,278,10.5,19.2,45,0.00,,---,0.00,VWS V13.01,2013-02-17 19:57:00,
2013-02-17 15:02:00,16.5,-1.1,18.63,WSW,241,7.6,13.2,45,0.00,,---,0.00,VWS V13.01,2013-02-17 20:02:00,
2013-02-17 15:07:00,16.5,-1.1,18.63,WNW,283,6.7,13.2,45,0.00,,---,0.00,VWS V13.01,2013-02-17 20:07:00,
2013-02-17 15:12:00,16.5,-0.6,18.63,West,270,6.3,15.4,46,0.00,,---,0.00,VWS V13.01,2013-02-17 20:12:00,
2013-02-17 15:17:00,16.7,-0.5,18.63,WNW,288,10.1,15.4,46,0.00,,---,0.00,VWS V13.01,2013-02-17 20:17:00,
2013-02-17 15:22:00,16.2,-1.0,18.63,WNW,293,8.7,11.0,46,0.00,,---,0.00,VWS V13.01,2013-02-17 20:22:00,
2013-02-17 15:27:00,15.8,-0.9,18.63,WNW,288,8.1,15.0,47,0.00,,---,0.00,VWS V13.01,2013-02-17 20:27:00,
2013-02-17 15:33:00,15.8,-0.9,18.63,WNW,295,8.7,16.8,47,0.00,,---,0.00,VWS V13.01,2013-02-17 20:33:00,
2013-02-17 15:38:00,15.8,-0.9,18.63,West,272,7.6,16.8,47,0.00,,---,0.00,VWS V13.01,2013-02-17 20:38:00,
2013-02-17 15:43:00,15.6,-1.0,18.63,NW,304,11.0,15.9,47,0.00,,---,0.00,VWS V13.01,2013-02-17 20:43:00,
2013-02-17 15:48:00,15.3,-1.3,18.63,WNW,286,6.3,15.9,47,0.00,,---,0.00,VWS V13.01,2013-02-17 20:48:00,
2013-02-17 15:53:00,15.3,-0.9,18.63,West,276,8.7,12.8,48,0.00,,---,0.00,VWS V13.01,2013-02-17 20:53:00,
2013-02-17 15:58:00,15.1,-1.1,18.63,WNW,289,12.8,14.1,48,0.00,,---,0.00,VWS V13.01,2013-02-17 20:58:00,
2013-02-17 16:03:00,15.1,-0.6,18.63,West,275,8.1,8.3,49,0.00,,---,0.00,VWS V13.01,2013-02-17 21:03:00,
2013-02-17 16:08:00,15.1,-0.2,18.63,WSW,251,10.5,11.0,50,0.00,,---,0.00,VWS V13.01,2013-02-17 21:08:00,
2013-02-17 16:13:00,15.1,0.2,18.63,WNW,294,7.6,10.5,51,0.00,,---,0.00,VWS V13.01,2013-02-17 21:13:00,
2013-02-17 16:18:00,15.3,0.4,18.63,West,275,12.3,12.8,51,0.00,,---,0.00,VWS V13.01,2013-02-17 21:18:00,
2013-02-17 16:23:00,15.3,0.4,18.63,West,265,5.4,10.5,51,0.00,,---,0.00,VWS V13.01,2013-02-17 21:23:00,
2013-02-17 16:28:00,15.3,0.8,18.63,NW,319,9.6,12.3,52,0.00,,---,0.00,VWS V13.01,2013-02-17 21:28:00,
2013-02-17 16:33:00,15.1,0.6,18.63,West,280,8.7,12.8,52,0.00,,---,0.00,VWS V13.01,2013-02-17 21:33:00,
2013-02-17 16:38:00,15.1,0.6,18.63,WNW,296,11.0,12.8,52,0.00,,---,0.00,VWS V13.01,2013-02-17 21:38:00,
2013-02-17 16:43:00,14.7,0.3,18.63,WNW,289,5.4,12.8,52,0.00,,---,0.00,VWS V13.01,2013-02-17 21:43:00,
2013-02-17 16:49:00,14.5,0.5,18.63,West,267,8.3,12.8,53,0.00,,---,0.00,VWS V13.01,2013-02-17 21:49:00,
2013-02-17 16:54:00,14.4,0.8,18.63,WNW,289,4.5,10.1,54,0.00,,---,0.00,VWS V13.01,2013-02-17 21:54:00,
2013-02-17 16:59:00,14.4,0.8,18.63,WNW,288,6.3,10.1,54,0.00,,---,0.00,VWS V13.01,2013-02-17 21:59:00,
2013-02-17 17:04:00,14.4,1.2,18.63,West,259,3.1,9.6,55,0.00,,---,0.00,VWS V13.01,2013-02-17 22:04:00,
2013-02-17 17:09:00,14.4,1.5,18.63,WNW,289,5.4,9.6,56,0.00,,---,0.00,VWS V13.01,2013-02-17 22:09:00,
2013-02-17 17:14:00,14.2,1.4,18.63,WSW,258,5.8,8.1,56,0.00,,---,0.00,VWS V13.01,2013-02-17 22:14:00,
2013-02-17 17:19:00,14.2,1.8,18.63,West,279,8.1,11.0,57,0.00,,---,0.00,VWS V13.01,2013-02-17 22:19:00,
2013-02-17 17:24:00,13.8,1.4,18.63,WNW,282,3.1,8.7,57,0.00,,---,0.00,VWS V13.01,2013-02-17 22:24:00,
2013-02-17 17:29:00,13.8,1.8,18.63,WNW,292,2.7,8.7,58,0.00,,---,0.00,VWS V13.01,2013-02-17 22:29:00,
2013-02-17 17:34:00,13.8,1.8,18.63,West,274,6.3,6.3,58,0.00,,---,0.00,VWS V13.01,2013-02-17 22:34:00,
2013-02-17 17:39:00,14.0,2.0,18.63,West,278,6.7,8.7,58,0.00,,---,0.00,VWS V13.01,2013-02-17 22:39:00,
2013-02-17 17:44:00,13.8,1.8,18.63,NW,311,5.8,12.3,58,0.00,,---,0.00,VWS V13.01,2013-02-17 22:44:00,
2013-02-17 17:49:00,13.8,1.8,18.63,WNW,287,4.9,12.3,58,0.00,,---,0.00,VWS V13.01,2013-02-17 22:49:00,
2013-02-17 17:54:00,13.8,1.8,18.63,WNW,292,4.9,8.3,58,0.00,,---,0.00,VWS V13.01,2013-02-17 22:54:00,
2013-02-17 18:00:00,13.8,1.8,18.63,NW,305,3.1,8.3,58,0.00,,---,0.00,VWS V13.01,2013-02-17 23:00:00,
2013-02-17 18:05:00,13.8,1.8,18.63,West,277,3.1,10.1,58,0.00,,---,0.00,VWS V13.01,2013-02-17 23:05:00,
2013-02-17 18:10:00,13.8,1.8,18.63,WNW,285,4.9,8.1,58,0.00,,---,0.00,VWS V13.01,2013-02-17 23:10:00,
2013-02-17 18:15:00,13.8,1.8,18.63,West,276,7.6,10.5,58,0.00,,---,0.00,VWS V13.01,2013-02-17 23:15:00,
2013-02-17 18:20:00,13.6,1.6,18.63,WNW,288,3.6,6.3,58,0.00,,---,0.00,VWS V13.01,2013-02-17 23:20:00,
2013-02-17 18:25:00,13.6,1.6,18.63,WNW,288,4.0,6.3,58,0.00,,---,0.00,VWS V13.01,2013-02-17 23:25:00,
2013-02-17 18:30:00,13.6,1.6,18.63,WNW,302,5.4,5.4,58,0.00,,---,0.00,VWS V13.01,2013-02-17 23:30:00,
2013-02-17 18:35:00,13.5,1.5,18.63,West,260,5.4,8.3,58,0.00,,---,0.00,VWS V13.01,2013-02-17 23:35:00,
2013-02-17 18:40:00,13.5,1.5,18.63,SW,219,5.8,6.3,58,0.00,,---,0.00,VWS V13.01,2013-02-17 23:40:00,
2013-02-17 18:45:00,13.5,1.5,18.63,WNW,290,6.3,8.3,58,0.00,,---,0.00,VWS V13.01,2013-02-17 23:45:00,
2013-02-17 18:51:00,13.5,1.5,18.63,NW,305,5.8,8.1,58,0.00,,---,0.00,VWS V13.01,2013-02-17 23:51:00,
2013-02-17 18:56:00,13.5,1.5,18.63,WSW,243,5.4,8.3,58,0.00,,---,0.00,VWS V13.01,2013-02-17 23:56:00,
2013-02-17 19:01:00,13.3,1.3,18.63,NW,322,8.3,8.3,58,0.00,,---,0.00,VWS V13.01,2013-02-18 00:01:00,
2013-02-17 19:06:00,13.3,1.3,18.63,West,273,3.1,8.7,58,0.00,,---,0.00,VWS V13.01,2013-02-18 00:06:00,
2013-02-17 19:11:00,13.1,1.1,18.63,NW,311,8.1,8.1,58,0.00,,---,0.00,VWS V13.01,2013-02-18 00:11:00,
2013-02-17 19:16:00,13.1,1.1,18.63,WNW,285,6.3,8.1,58,0.00,,---,0.00,VWS V13.01,2013-02-18 00:16:00,
2013-02-17 19:21:00,12.9,0.9,18.63,WNW,288,4.5,5.8,58,0.00,,---,0.00,VWS V13.01,2013-02-18 00:21:00,
2013-02-17 19:26:00,12.9,0.9,18.63,West,260,2.7,6.3,58,0.00,,---,0.00,VWS V13.01,2013-02-18 00:26:00,
2013-02-17 19:31:00,12.9,0.9,18.63,WNW,298,4.9,5.8,58,0.00,,---,0.00,VWS V13.01,2013-02-18 00:31:00,
2013-02-17 19:36:00,12.9,0.9,18.63,NW,310,4.9,6.3,58,0.00,,---,0.00,VWS V13.01,2013-02-18 00:36:00,
2013-02-17 19:41:00,12.9,0.9,18.63,WNW,288,5.4,5.4,58,0.00,,---,0.00,VWS V13.01,2013-02-18 00:41:00,
2013-02-17 19:46:00,13.1,1.1,18.63,NW,306,4.0,5.8,58,0.00,,---,0.00,VWS V13.01,2013-02-18 00:46:00,
2013-02-17 19:51:00,13.3,1.3,18.63,NW,311,5.8,7.6,58,0.00,,---,0.00,VWS V13.01,2013-02-18 00:51:00,
2013-02-17 19:56:00,13.3,1.3,18.63,West,279,5.4,7.6,58,0.00,,---,0.00,VWS V13.01,2013-02-18 00:56:00,
2013-02-17 20:01:00,13.1,1.1,18.63,NW,311,6.7,11.0,58,0.00,,---,0.00,VWS V13.01,2013-02-18 01:01:00,
2013-02-17 20:07:00,13.1,1.1,18.63,WNW,290,8.7,11.0,58,0.00,,---,0.00,VWS V13.01,2013-02-18 01:07:00,
2013-02-17 20:12:00,13.1,1.1,18.63,WNW,282,6.3,8.3,58,0.00,,---,0.00,VWS V13.01,2013-02-18 01:12:00,
2013-02-17 20:17:00,13.1,1.1,18.63,West,277,5.4,10.5,58,0.00,,---,0.00,VWS V13.01,2013-02-18 01:17:00,
2013-02-17 20:22:00,13.1,1.1,18.63,WSW,254,6.3,8.1,58,0.00,,---,0.00,VWS V13.01,2013-02-18 01:22:00,
2013-02-17 20:27:00,12.9,0.9,18.63,West,278,5.8,9.2,58,0.00,,---,0.00,VWS V13.01,2013-02-18 01:27:00,
2013-02-17 20:32:00,12.7,0.8,18.63,NW,306,5.8,6.3,58,0.00,,---,0.00,VWS V13.01,2013-02-18 01:32:00,
2013-02-17 20:37:00,12.7,0.8,18.63,West,276,6.3,6.3,58,0.00,,---,0.00,VWS V13.01,2013-02-18 01:37:00,
2013-02-17 20:42:00,12.7,0.8,18.63,WNW,290,5.4,5.8,58,0.00,,---,0.00,VWS V13.01,2013-02-18 01:42:00,
2013-02-17 20:47:00,12.7,0.8,18.63,West,265,5.8,8.1,58,0.00,,---,0.00,VWS V13.01,2013-02-18 01:47:00,
2013-02-17 20:52:00,12.6,0.6,18.63,West,276,4.0,7.6,58,0.00,,---,0.00,VWS V13.01,2013-02-18 01:52:00,
2013-02-17 20:57:00,12.6,0.6,18.63,WNW,287,6.3,8.1,58,0.00,,---,0.00,VWS V13.01,2013-02-18 01:57:00,
2013-02-17 21:02:00,12.4,0.4,18.63,WNW,286,5.8,5.8,58,0.00,,---,0.00,VWS V13.01,2013-02-18 02:02:00,
2013-02-17 21:07:00,12.2,0.3,18.63,West,270,8.7,8.7,58,0.00,,---,0.00,VWS V13.01,2013-02-18 02:07:00,
2013-02-17 21:12:00,12.2,0.3,18.63,WNW,283,8.3,8.7,58,0.00,,---,0.00,VWS V13.01,2013-02-18 02:12:00,
2013-02-17 21:17:00,12.0,0.1,18.63,WSW,251,8.1,8.7,58,0.00,,---,0.00,VWS V13.01,2013-02-18 02:17:00,
2013-02-17 21:23:00,11.8,-0.1,18.63,West,271,5.4,8.3,58,0.00,,---,0.00,VWS V13.01,2013-02-18 02:23:00,
2013-02-17 21:28:00,11.8,-0.1,18.63,WNW,287,8.1,8.3,58,0.00,,---,0.00,VWS V13.01,2013-02-18 02:28:00,
2013-02-17 21:33:00,11.7,-0.2,18.63,West,270,4.0,5.8,58,0.00,,---,0.00,VWS V13.01,2013-02-18 02:33:00,
2013-02-17 21:38:00,11.7,-0.2,18.63,West,259,5.8,6.3,58,0.00,,---,0.00,VWS V13.01,2013-02-18 02:38:00,
2013-02-17 21:43:00,11.5,-0.4,18.63,West,277,5.4,8.3,58,0.00,,---,0.00,VWS V13.01,2013-02-18 02:43:00,
2013-02-17 21:48:00,11.3,-0.6,18.63,West,279,4.0,8.3,58,0.00,,---,0.00,VWS V13.01,2013-02-18 02:48:00,
2013-02-17 21:53:00,11.3,-0.6,18.63,NW,307,7.6,7.6,58,0.00,,---,0.00,VWS V13.01,2013-02-18 02:53:00,
2013-02-17 21:58:00,11.1,-0.8,18.63,WSW,250,3.6,8.3,58,0.00,,---,0.00,VWS V13.01,2013-02-18 02:58:00,
2013-02-17 22:03:00,11.1,-0.8,18.63,West,275,5.4,6.7,58,0.00,,---,0.00,VWS V13.01,2013-02-18 03:03:00,
2013-02-17 22:08:00,11.1,-0.8,18.63,WSW,256,3.6,7.2,58,0.00,,---,0.00,VWS V13.01,2013-02-18 03:08:00,
2013-02-17 22:13:00,11.1,-0.8,18.63,WSW,253,5.4,8.3,58,0.00,,---,0.00,VWS V13.01,2013-02-18 03:13:00,
2013-02-17 22:18:00,10.9,-0.9,18.63,West,271,6.3,8.3,58,0.00,,---,0.00,VWS V13.01,2013-02-18 03:18:00,
2013-02-17 22:23:00,10.9,-0.9,18.63,West,276,3.1,7.6,58,0.00,,---,0.00,VWS V13.01,2013-02-18 03:23:00,
2013-02-17 22:28:00,11.1,-0.8,18.63,West,273,5.8,8.1,58,0.00,,---,0.00,VWS V13.01,2013-02-18 03:28:00,
2013-02-17 22:34:00,11.3,-0.6,18.63,WNW,283,4.0,6.3,58,0.00,,---,0.00,VWS V13.01,2013-02-18 03:34:00,
2013-02-17 22:39:00,11.3,-0.6,18.63,WNW,286,5.8,7.2,58,0.00,,---,0.00,VWS V13.01,2013-02-18 03:39:00,
2013-02-17 22:44:00,11.7,-0.2,18.63,West,269,5.4,11.0,58,0.00,,---,0.00,VWS V13.01,2013-02-18 03:44:00,
2013-02-17 22:49:00,11.7,-0.2,18.63,West,265,4.9,11.0,58,0.00,,---,0.00,VWS V13.01,2013-02-18 03:49:00,
2013-02-17 22:54:00,11.7,-0.2,18.63,West,276,8.1,8.1,58,0.00,,---,0.00,VWS V13.01,2013-02-18 03:54:00,
2013-02-17 22:59:00,11.7,-0.2,18.63,West,271,3.6,8.3,58,0.00,,---,0.00,VWS V13.01,2013-02-18 03:59:00,
2013-02-17 23:04:00,11.5,-0.4,18.63,West,276,4.9,8.3,58,0.00,,---,0.00,VWS V13.01,2013-02-18 04:04:00,
2013-02-17 23:09:00,11.5,-0.4,18.63,West,259,5.4,8.3,58,0.00,,---,0.00,VWS V13.01,2013-02-18 04:09:00,
2013-02-17 23:14:00,11.5,-0.4,18.63,West,265,5.4,8.7,58,0.00,,---,0.00,VWS V13.01,2013-02-18 04:14:00,
2013-02-17 23:19:00,11.3,-0.6,18.63,West,272,4.0,8.7,58,0.00,,---,0.00,VWS V13.01,2013-02-18 04:19:00,
2013-02-17 23:24:00,11.3,-0.6,18.63,West,271,5.4,8.1,58,0.00,,---,0.00,VWS V13.01,2013-02-18 04:24:00,
2013-02-17 23:29:00,11.3,-0.6,18.63,West,271,7.6,8.7,58,0.00,,---,0.00,VWS V13.01,2013-02-18 04:29:00,
2013-02-17 23:35:00,11.3,-0.6,18.63,West,264,5.8,8.7,58,0.00,,---,0.00,VWS V13.01,2013-02-18 04:35:00,
2013-02-17 23:40:00,11.5,-0.4,18.63,WNW,284,6.3,6.3,58,0.00,,---,0.00,VWS V13.01,2013-02-18 04:40:00,
2013-02-17 23:45:00,11.3,-0.6,18.63,WNW,283,5.8,7.6,58,0.00,,---,0.00,VWS V13.01,2013-02-18 04:45:00,
2013-02-17 23:50:00,11.5,-0.4,18.63,West,260,5.8,5.8,58,0.00,,---,0.00,VWS V13.01,2013-02-18 04:50:00,
2013-02-17 23:55:00,11.5,-0.4,18.63,WSW,253,4.0,8.1,58,0.00,,---,0.00,VWS V13.01,2013-02-18 04:55:00,